createdAt,value
2022-12-24T00:04:45.806Z,92.26
2022-12-24T00:09:49.684Z,92.41
2022-12-24T00:14:53.556Z,92.35
2022-12-24T00:19:57.437Z,92.71
2022-12-24T00:25:01.362Z,92.85
2022-12-24T00:30:05.680Z,92.91
2022-12-24T00:35:09.723Z,92.86
2022-12-24T00:40:13.718Z,92.98
2022-12-24T00:45:17.597Z,92.93
2022-12-24T00:50:21.317Z,92.89
2022-12-24T00:55:25.166Z,93.08
2022-12-24T01:00:29.017Z,93.10
2022-12-24T01:05:32.832Z,93.08
2022-12-24T01:10:36.574Z,93.10
2022-12-24T01:15:40.358Z,93.06
2022-12-24T01:20:44.262Z,93.18
2022-12-24T01:25:48.087Z,93.24
2022-12-24T01:30:51.897Z,93.16
2022-12-24T01:35:55.892Z,93.26
2022-12-24T01:41:18.162Z,93.30
2022-12-24T01:46:29.297Z,93.38
2022-12-24T01:51:42.977Z,93.50
2022-12-24T01:56:54.672Z,93.54
2022-12-24T02:01:58.828Z,93.53
2022-12-24T02:07:02.902Z,93.52
2022-12-24T02:12:07.339Z,93.48
2022-12-24T02:17:19.654Z,93.47
2022-12-24T02:22:57.583Z,93.43
2022-12-24T02:28:27.737Z,93.41
2022-12-24T02:34:13.273Z,92.89
2022-12-24T02:39:24.764Z,93.05
2022-12-24T02:44:31.054Z,93.13
2022-12-24T02:49:36.466Z,93.16
2022-12-24T02:54:40.305Z,93.14
2022-12-24T03:00:05.278Z,93.26
2022-12-24T03:05:18.146Z,93.33
2022-12-24T03:10:30.230Z,93.19
2022-12-24T03:15:34.609Z,92.90
2022-12-24T03:20:41.797Z,92.73
2022-12-24T03:25:46.080Z,92.65
2022-12-24T03:30:49.981Z,92.72
2022-12-24T03:35:53.696Z,92.76
2022-12-24T03:40:57.533Z,93.05
2022-12-24T03:46:06.857Z,93.15
2022-12-24T03:51:22.276Z,93.21
2022-12-24T03:56:26.550Z,93.30
2022-12-24T04:01:30.919Z,93.34
2022-12-24T04:06:35.082Z,93.41
2022-12-24T04:11:38.898Z,93.45
2022-12-24T04:16:42.665Z,93.23
2022-12-24T04:21:46.470Z,92.82
2022-12-24T04:26:50.246Z,93.11
2022-12-24T04:31:54.001Z,92.85
2022-12-24T04:36:57.735Z,92.69
2022-12-24T04:42:01.628Z,92.71
2022-12-24T04:47:05.409Z,93.05
2022-12-24T04:52:09.146Z,92.47
2022-12-24T04:57:12.986Z,92.21
2022-12-24T05:02:17.090Z,92.17
2022-12-24T05:07:21.347Z,92.22
2022-12-24T05:12:25.174Z,92.26
2022-12-24T05:17:28.966Z,92.33
2022-12-24T05:22:51.428Z,92.45
2022-12-24T05:27:55.232Z,92.53
2022-12-24T05:32:59.108Z,92.53
2022-12-24T05:38:02.964Z,92.57
2022-12-24T05:43:06.740Z,92.64
2022-12-24T05:48:10.414Z,93.25
2022-12-24T05:53:14.257Z,93.57
2022-12-24T05:58:18.197Z,93.72
2022-12-24T06:03:22.012Z,93.71
2022-12-24T06:08:25.803Z,93.68
2022-12-24T06:13:30.226Z,93.73
2022-12-24T06:18:35.369Z,93.75
2022-12-24T06:23:40.938Z,93.95
2022-12-24T06:28:45.550Z,93.94
2022-12-24T06:33:50.000Z,94.06
2022-12-24T06:38:55.012Z,94.32
2022-12-24T06:43:58.959Z,94.45
2022-12-24T06:49:03.128Z,94.43
2022-12-24T06:54:06.870Z,94.41
2022-12-24T06:59:10.617Z,94.33
2022-12-24T07:04:19.919Z,94.32
2022-12-24T07:09:24.462Z,94.28
2022-12-24T07:14:28.234Z,94.32
2022-12-24T07:19:31.980Z,94.35
2022-12-24T07:24:35.787Z,94.38
2022-12-24T07:29:40.848Z,94.40
2022-12-24T07:34:44.565Z,94.46
2022-12-24T07:39:48.440Z,94.48
2022-12-24T07:44:52.199Z,93.80
2022-12-24T07:49:56.025Z,92.69
2022-12-24T07:54:59.765Z,91.92
2022-12-24T08:00:04.545Z,91.47
2022-12-24T08:05:15.705Z,91.58
2022-12-24T08:10:19.565Z,91.55
2022-12-24T08:15:23.320Z,91.48
2022-12-24T08:20:27.344Z,91.17
2022-12-24T08:25:31.107Z,90.61
2022-12-24T08:30:35.205Z,90.87
2022-12-24T08:35:38.995Z,90.86
2022-12-24T08:41:16.946Z,90.29
2022-12-24T08:46:43.863Z,90.43
2022-12-24T08:51:51.508Z,90.36
2022-12-24T08:56:57.055Z,90.52
2022-12-24T09:02:08.117Z,90.39
2022-12-24T09:07:16.983Z,90.23
2022-12-24T09:12:20.930Z,89.83
2022-12-24T09:17:24.838Z,90.08
2022-12-24T09:22:30.287Z,90.23
2022-12-24T09:27:34.590Z,90.40
2022-12-24T09:32:38.398Z,90.56
2022-12-24T09:37:42.087Z,90.51
2022-12-24T09:42:53.863Z,90.41
2022-12-24T09:48:05.891Z,90.48
2022-12-24T09:53:51.507Z,90.48
2022-12-24T09:58:59.980Z,90.32
2022-12-24T10:04:08.103Z,89.86
2022-12-24T10:09:20.334Z,89.88
2022-12-24T10:14:39.907Z,89.95
2022-12-24T10:20:26.140Z,90.32
2022-12-24T10:25:43.453Z,90.57
2022-12-24T10:30:50.250Z,90.55
2022-12-24T10:35:55.445Z,90.41
2022-12-24T10:41:00.970Z,90.17
2022-12-24T10:46:22.694Z,90.12
2022-12-24T10:51:38.292Z,90.32
2022-12-24T10:56:45.124Z,90.50
2022-12-24T11:01:50.575Z,90.70
2022-12-24T11:07:03.579Z,90.96
2022-12-24T11:12:17.662Z,91.15
2022-12-24T11:17:22.819Z,91.25
2022-12-24T11:22:31.792Z,91.50
2022-12-24T11:27:46.317Z,91.55
2022-12-24T11:32:52.179Z,91.66
2022-12-24T11:37:58.925Z,91.79
2022-12-24T11:43:09.592Z,92.00
2022-12-24T11:48:30.930Z,92.00
2022-12-24T11:54:03.195Z,92.01
2022-12-24T11:59:21.327Z,92.04
2022-12-24T12:04:28.380Z,91.96
2022-12-24T12:09:35.087Z,92.06
2022-12-24T12:15:06.341Z,92.09
2022-12-24T12:20:36.724Z,92.27
2022-12-24T12:26:31.128Z,92.21
2022-12-24T12:31:48.403Z,92.19
2022-12-24T12:36:57.796Z,92.01
2022-12-24T12:42:01.848Z,91.49
2022-12-24T12:47:24.776Z,90.88
2022-12-24T12:53:13.617Z,90.55
2022-12-24T12:58:42.236Z,89.54
2022-12-24T13:03:58.909Z,88.45
2022-12-24T13:09:14.969Z,88.51
2022-12-24T13:14:18.675Z,88.38
2022-12-24T13:19:44.007Z,88.34
2022-12-24T13:24:56.901Z,87.68
2022-12-24T13:30:12.190Z,87.68
2022-12-24T13:35:21.575Z,87.34
2022-12-24T13:40:27.060Z,87.35
2022-12-24T13:45:31.169Z,87.67
2022-12-24T13:50:43.674Z,87.88
2022-12-24T13:55:55.677Z,88.03
2022-12-24T14:01:01.990Z,87.96
2022-12-24T14:06:43.777Z,87.81
2022-12-24T14:11:56.621Z,87.27
2022-12-24T14:17:19.186Z,86.55
2022-12-24T14:22:23.507Z,85.90
2022-12-24T14:27:41.119Z,86.08
2022-12-24T14:32:45.639Z,86.18
2022-12-24T14:38:03.304Z,85.79
2022-12-24T14:43:30.714Z,85.44
2022-12-24T14:48:49.820Z,85.38
2022-12-24T14:54:03.522Z,85.52
2022-12-24T14:59:19.558Z,85.72
2022-12-24T15:04:23.683Z,85.99
2022-12-24T15:09:30.139Z,85.87
2022-12-24T15:14:40.955Z,85.78
2022-12-24T15:19:48.521Z,85.81
2022-12-24T15:24:52.905Z,85.75
2022-12-24T15:29:58.011Z,85.69
2022-12-24T15:35:01.843Z,85.44
2022-12-24T15:40:08.712Z,85.47
2022-12-24T15:45:26.666Z,85.60
2022-12-24T15:50:35.100Z,85.94
2022-12-24T15:55:40.794Z,86.38
2022-12-24T16:00:45.683Z,86.38
2022-12-24T16:06:02.724Z,86.20
2022-12-24T16:11:06.376Z,85.94
2022-12-24T16:16:13.511Z,85.73
2022-12-24T16:21:30.868Z,85.90
2022-12-24T16:26:35.713Z,86.00
2022-12-24T16:31:54.337Z,86.02
2022-12-24T16:36:59.687Z,86.11
2022-12-24T16:42:23.274Z,86.37
2022-12-24T16:47:33.745Z,87.32
2022-12-24T16:52:41.800Z,87.48
2022-12-24T16:57:45.605Z,87.86
2022-12-24T17:02:50.378Z,87.76
2022-12-24T17:07:54.778Z,87.94
2022-12-24T17:12:58.641Z,88.05
2022-12-24T17:18:02.389Z,87.89
2022-12-24T17:23:06.224Z,87.85
2022-12-24T17:28:09.878Z,87.94
2022-12-24T17:33:15.079Z,88.23
2022-12-24T17:38:19.024Z,88.41
2022-12-24T17:43:22.796Z,88.73
2022-12-24T17:48:26.579Z,88.88
2022-12-24T17:53:30.180Z,88.80
2022-12-24T17:58:34.337Z,88.68
2022-12-24T18:03:38.095Z,88.65
2022-12-24T18:08:43.207Z,88.71
2022-12-24T18:13:47.984Z,88.78
2022-12-24T18:18:52.793Z,88.78
2022-12-24T18:23:57.309Z,88.73
2022-12-24T18:29:04.885Z,88.65
2022-12-24T18:34:13.053Z,88.61
2022-12-24T18:39:16.815Z,88.68
2022-12-24T18:44:24.860Z,88.72
2022-12-24T18:49:29.199Z,88.72
2022-12-24T18:54:32.903Z,88.79
2022-12-24T18:59:38.253Z,88.81
2022-12-24T19:04:42.187Z,88.90
2022-12-24T19:09:48.668Z,88.84
2022-12-24T19:14:53.541Z,88.81
2022-12-24T19:19:57.280Z,88.84
2022-12-24T19:25:01.140Z,88.91
2022-12-24T19:30:05.796Z,89.00
2022-12-24T19:35:09.710Z,89.13
2022-12-24T19:40:13.697Z,89.31
2022-12-24T19:45:17.534Z,89.37
2022-12-24T19:50:22.104Z,89.48
2022-12-24T19:55:26.032Z,89.65
2022-12-24T20:00:30.083Z,89.66
2022-12-24T20:05:33.743Z,89.71
2022-12-24T20:10:44.716Z,90.09
2022-12-24T20:15:48.623Z,90.33
2022-12-24T20:20:52.413Z,90.56
2022-12-24T20:26:01.273Z,90.57
2022-12-24T20:31:11.806Z,90.61
2022-12-24T20:36:17.859Z,90.60
2022-12-24T20:41:24.236Z,90.69
2022-12-24T20:46:29.297Z,90.86
2022-12-24T20:51:33.317Z,90.95
2022-12-24T20:56:37.083Z,90.97
2022-12-24T21:01:40.931Z,91.04
2022-12-24T21:06:45.019Z,91.02
2022-12-24T21:11:51.992Z,91.04
2022-12-24T21:16:56.478Z,91.11
2022-12-24T21:22:00.486Z,91.06
2022-12-24T21:27:04.335Z,91.05
2022-12-24T21:32:08.242Z,91.05
2022-12-24T21:37:12.134Z,91.05
2022-12-24T21:42:15.969Z,91.07
2022-12-24T21:47:19.891Z,91.11
2022-12-24T21:52:23.620Z,91.08
2022-12-24T21:57:45.830Z,91.10
2022-12-24T22:02:51.671Z,91.22
2022-12-24T22:08:14.913Z,91.32
2022-12-24T22:13:19.342Z,91.42
2022-12-24T22:18:25.394Z,91.52
2022-12-24T22:23:29.218Z,91.64
2022-12-24T22:28:32.873Z,91.69
2022-12-24T22:33:36.673Z,91.77
2022-12-24T22:38:43.643Z,91.65
2022-12-24T22:43:47.352Z,90.90
2022-12-24T22:48:51.199Z,90.18
2022-12-24T22:53:55.056Z,90.15
2022-12-24T22:58:59.298Z,90.21
2022-12-24T23:04:04.019Z,90.36
2022-12-24T23:09:09.841Z,90.16
2022-12-24T23:14:37.900Z,90.05
2022-12-24T23:19:42.203Z,90.27
2022-12-24T23:24:48.765Z,90.25
2022-12-24T23:29:52.593Z,90.29
2022-12-24T23:34:56.324Z,90.40
2022-12-24T23:40:00.294Z,90.49
2022-12-24T23:45:04.460Z,90.59
2022-12-24T23:50:08.959Z,90.86
2022-12-24T23:55:13.279Z,90.83
